Terminal Aerodrome Forecast
Issued by NWS Jackson, KY

Home | Current Version | Previous Version | Text Only | Print | Product List | Glossary On
Versions: 1 2 3 4 5 6 7 8 9 10 11 12 13 14 15 16 17 18 19
000
FTUS43 KJKL 251100
TAFLOZ
TAF
KLOZ 251125Z 2512/2612 VRB03KT P6SM SKC
     FM251800 26006KT P6SM BKN200
     FM260400 VRB03KT P6SM VCSH OVC080
     FM260800 VRB03KT 5SM -RA BR OVC025=

USA.gov is the U.S. government's official web portal to all federal, state and local government web resources and services.